createdAt,value
2023-06-01T00:02:21.228Z,7.07
2023-06-01T00:04:49.771Z,6.82
2023-06-01T00:07:17.195Z,7.50
2023-06-01T00:09:43.948Z,6.97
2023-06-01T00:12:11.050Z,7.80
2023-06-01T00:14:37.985Z,7.57
2023-06-01T00:17:06.762Z,7.60
2023-06-01T00:19:33.623Z,8.07
2023-06-01T00:22:00.461Z,7.40
2023-06-01T00:24:27.417Z,7.30
2023-06-01T00:26:54.312Z,7.00
2023-06-01T00:29:21.890Z,7.28
2023-06-01T00:31:48.763Z,7.50
2023-06-01T00:34:15.980Z,7.53
2023-06-01T00:36:42.740Z,7.33
2023-06-01T00:39:09.507Z,7.57
2023-06-01T00:41:36.585Z,8.00
2023-06-01T00:44:03.490Z,7.63
2023-06-01T00:46:31.794Z,7.60
2023-06-01T00:48:59.555Z,7.50
2023-06-01T00:51:26.917Z,8.10
2023-06-01T00:53:53.882Z,7.83
2023-06-01T00:56:21.577Z,7.70
2023-06-01T00:58:48.577Z,7.37
2023-06-01T01:01:23.999Z,8.00
2023-06-01T01:03:58.593Z,7.33
2023-06-01T01:06:41.206Z,8.23
2023-06-01T01:09:15.176Z,7.90
2023-06-01T01:11:48.487Z,7.77
2023-06-01T01:14:25.053Z,9.07
2023-06-01T01:17:11.415Z,8.40
2023-06-01T01:19:55.115Z,8.00
2023-06-01T01:22:40.006Z,8.23
2023-06-01T01:25:42.502Z,8.97
2023-06-01T01:28:27.415Z,8.60
2023-06-01T01:30:56.407Z,8.13
2023-06-01T01:33:24.778Z,7.43
2023-06-01T01:35:52.762Z,7.23
2023-06-01T01:38:19.631Z,8.60
2023-06-01T01:40:46.493Z,8.33
2023-06-01T01:43:13.449Z,8.87
2023-06-01T01:45:40.623Z,7.97
2023-06-01T01:48:20.010Z,8.47
2023-06-01T01:51:11.295Z,8.33
2023-06-01T01:53:42.147Z,8.33
2023-06-01T01:56:10.146Z,8.03
2023-06-01T01:58:38.182Z,8.43
2023-06-01T02:01:05.640Z,8.97
2023-06-01T02:03:32.624Z,7.90
2023-06-01T02:05:59.432Z,8.63
2023-06-01T02:08:26.246Z,8.73
2023-06-01T02:10:53.053Z,8.97
2023-06-01T02:13:19.886Z,8.43
2023-06-01T02:15:46.716Z,7.83
2023-06-01T02:18:18.960Z,9.50
2023-06-01T02:20:46.382Z,8.83
2023-06-01T02:23:13.225Z,9.27
2023-06-01T02:25:39.999Z,8.93
2023-06-01T02:28:08.331Z,8.43
2023-06-01T02:30:35.203Z,8.20
2023-06-01T02:33:02.390Z,8.43
2023-06-01T02:35:29.433Z,8.83
2023-06-01T02:37:56.425Z,9.27
2023-06-01T02:40:23.437Z,8.93
2023-06-01T02:42:50.404Z,8.93
2023-06-01T02:45:17.500Z,9.07
2023-06-01T02:47:46.045Z,8.43
2023-06-01T02:50:13.238Z,9.07
2023-06-01T02:52:45.098Z,8.47
2023-06-01T02:55:12.197Z,9.00
2023-06-01T02:57:58.811Z,8.83
2023-06-01T03:00:26.090Z,8.93
2023-06-01T03:02:54.157Z,8.63
2023-06-01T03:05:22.382Z,9.03
2023-06-01T03:08:09.056Z,9.60
2023-06-01T03:10:35.908Z,8.67
2023-06-01T03:13:15.492Z,9.10
2023-06-01T03:15:42.658Z,9.43
2023-06-01T03:18:10.049Z,8.80
2023-06-01T03:20:37.427Z,9.07
2023-06-01T03:23:04.444Z,9.23
2023-06-01T03:25:31.257Z,9.03
2023-06-01T03:27:58.057Z,9.60
2023-06-01T03:30:25.074Z,9.73
2023-06-01T03:32:52.338Z,9.67
2023-06-01T03:35:19.553Z,9.47
2023-06-01T03:37:47.646Z,9.40
2023-06-01T03:40:17.744Z,9.73
2023-06-01T03:42:47.328Z,9.17
2023-06-01T03:45:16.680Z,8.53
2023-06-01T03:47:44.125Z,8.87
2023-06-01T03:50:11.587Z,10.00
2023-06-01T03:52:38.660Z,9.20
2023-06-01T03:55:11.731Z,9.57
2023-06-01T03:57:58.305Z,9.43
2023-06-01T04:00:25.857Z,9.53
2023-06-01T04:02:57.923Z,9.23
2023-06-01T04:05:27.022Z,7.97
2023-06-01T04:07:55.667Z,8.87
2023-06-01T04:10:24.078Z,8.67
2023-06-01T04:12:52.005Z,8.07
2023-06-01T04:15:21.855Z,8.53
2023-06-01T04:17:48.881Z,8.80
2023-06-01T04:20:17.338Z,8.10
2023-06-01T04:22:46.509Z,8.30
2023-06-01T04:25:19.071Z,8.77
2023-06-01T04:27:49.160Z,8.80
2023-06-01T04:30:17.762Z,8.47
2023-06-01T04:32:49.192Z,7.60
2023-06-01T04:35:17.595Z,8.53
2023-06-01T04:37:45.223Z,8.27
2023-06-01T04:40:14.623Z,8.83
2023-06-01T04:42:50.376Z,8.67
2023-06-01T04:45:20.029Z,9.25
2023-06-01T04:47:47.978Z,9.00
2023-06-01T04:50:25.075Z,8.65
2023-06-01T04:52:53.139Z,9.57
2023-06-01T04:55:19.880Z,8.45
2023-06-01T04:57:46.687Z,8.27
2023-06-01T05:00:19.158Z,8.88
2023-06-01T05:02:48.762Z,8.67
2023-06-01T05:05:16.449Z,8.43
2023-06-01T05:07:44.580Z,8.87
2023-06-01T05:10:13.766Z,9.00
2023-06-01T05:12:46.230Z,8.40
2023-06-01T05:15:15.317Z,9.02
2023-06-01T05:17:42.528Z,9.07
2023-06-01T05:20:15.061Z,7.85
2023-06-01T05:22:44.955Z,8.07
2023-06-01T05:25:12.271Z,8.23
2023-06-01T05:27:39.398Z,8.45
2023-06-01T05:30:07.835Z,8.38
2023-06-01T05:32:35.282Z,8.05
2023-06-01T05:35:10.782Z,8.20
2023-06-01T05:37:37.960Z,8.30
2023-06-01T05:40:08.216Z,7.93
2023-06-01T05:42:35.857Z,7.68
2023-06-01T05:45:02.835Z,7.70
2023-06-01T05:47:30.014Z,7.10
2023-06-01T05:49:57.231Z,8.32
2023-06-01T05:52:24.267Z,7.20
2023-06-01T05:54:52.163Z,8.00
2023-06-01T05:57:19.008Z,7.88
2023-06-01T05:59:47.018Z,7.75
2023-06-01T06:02:17.816Z,7.63
2023-06-01T06:04:45.252Z,7.95
2023-06-01T06:07:12.509Z,8.18
2023-06-01T06:09:39.332Z,7.75
2023-06-01T06:12:07.347Z,7.75
2023-06-01T06:14:34.779Z,7.25
2023-06-01T06:17:01.893Z,7.88
2023-06-01T06:19:28.691Z,7.45
2023-06-01T06:21:55.633Z,7.22
2023-06-01T06:24:22.871Z,7.35
2023-06-01T06:26:49.745Z,7.80
2023-06-01T06:29:16.705Z,6.72
2023-06-01T06:31:44.261Z,7.70
2023-06-01T06:34:13.094Z,7.78
2023-06-01T06:36:39.868Z,7.65
2023-06-01T06:39:06.747Z,7.20
2023-06-01T06:41:33.562Z,6.80
2023-06-01T06:44:00.510Z,7.15
2023-06-01T06:46:27.332Z,7.80
2023-06-01T06:48:54.172Z,7.30
2023-06-01T06:51:20.941Z,6.93
2023-06-01T06:53:47.809Z,7.18
2023-06-01T06:56:14.587Z,7.28
2023-06-01T06:58:41.502Z,7.20
2023-06-01T07:01:08.306Z,6.85
2023-06-01T07:03:35.241Z,6.35
2023-06-01T07:06:02.278Z,6.07
2023-06-01T07:08:29.024Z,5.70
2023-06-01T07:10:57.332Z,7.10
2023-06-01T07:13:24.186Z,7.07
2023-06-01T07:15:51.417Z,6.78
2023-06-01T07:18:18.227Z,7.00
2023-06-01T07:20:45.054Z,6.60
2023-06-01T07:23:13.424Z,6.70
2023-06-01T07:25:40.656Z,6.07
2023-06-01T07:28:08.876Z,6.05
2023-06-01T07:30:36.096Z,6.20
2023-06-01T07:33:05.963Z,5.20
2023-06-01T07:35:34.613Z,5.85
2023-06-01T07:38:01.783Z,6.55
2023-06-01T07:40:29.075Z,6.10
2023-06-01T07:42:55.842Z,5.22
2023-06-01T07:45:23.139Z,5.82
2023-06-01T07:47:49.959Z,4.95
2023-06-01T07:50:16.997Z,5.88
2023-06-01T07:52:43.964Z,5.65
2023-06-01T07:55:11.097Z,5.10
2023-06-01T07:57:38.343Z,5.68
2023-06-01T08:00:10.936Z,5.25
2023-06-01T08:02:38.023Z,5.97
2023-06-01T08:05:06.491Z,5.18
2023-06-01T08:07:33.667Z,5.38
2023-06-01T08:10:00.506Z,5.50
2023-06-01T08:12:27.405Z,5.55
2023-06-01T08:14:54.403Z,5.93
2023-06-01T08:17:22.129Z,5.10
2023-06-01T08:19:49.055Z,5.85
2023-06-01T08:22:16.496Z,5.82
2023-06-01T08:24:43.501Z,6.07
2023-06-01T08:27:25.101Z,5.50
2023-06-01T08:29:55.137Z,5.85
2023-06-01T08:32:22.848Z,5.55
2023-06-01T08:34:50.663Z,5.85
2023-06-01T08:37:17.486Z,5.75
2023-06-01T08:39:44.372Z,6.00
2023-06-01T08:42:34.785Z,5.88
2023-06-01T08:45:05.669Z,6.30
2023-06-01T08:47:33.251Z,5.75
2023-06-01T08:50:00.580Z,5.93
2023-06-01T08:52:32.593Z,5.90
2023-06-01T08:55:01.159Z,5.60
2023-06-01T08:57:29.161Z,5.20
2023-06-01T08:59:56.073Z,5.43
2023-06-01T09:02:23.816Z,5.28
2023-06-01T09:04:51.507Z,5.10
2023-06-01T09:07:18.332Z,5.30
2023-06-01T09:09:46.915Z,5.32
2023-06-01T09:12:32.485Z,5.68
2023-06-01T09:15:14.241Z,5.38
2023-06-01T09:17:41.765Z,6.18
2023-06-01T09:20:13.625Z,5.50
2023-06-01T09:22:44.864Z,5.70
2023-06-01T09:25:16.147Z,5.00
2023-06-01T09:27:53.357Z,4.65
2023-06-01T09:30:21.931Z,4.72
2023-06-01T09:32:52.278Z,4.90
2023-06-01T09:35:46.785Z,5.13
2023-06-01T09:38:22.559Z,4.78
2023-06-01T09:41:01.390Z,4.97
2023-06-01T09:43:28.409Z,4.50
2023-06-01T09:46:06.225Z,5.18
2023-06-01T09:48:33.269Z,4.50
2023-06-01T09:51:02.461Z,4.70
2023-06-01T09:53:40.640Z,4.35
2023-06-01T09:56:07.514Z,5.20
2023-06-01T09:58:40.392Z,4.78
2023-06-01T10:01:10.210Z,4.75
2023-06-01T10:03:45.724Z,5.80
2023-06-01T10:06:13.751Z,5.65
2023-06-01T10:08:41.475Z,5.40
2023-06-01T10:11:09.323Z,5.07
2023-06-01T10:13:37.313Z,5.25
2023-06-01T10:16:05.089Z,4.65
2023-06-01T10:18:33.805Z,5.05
2023-06-01T10:21:02.540Z,4.93
2023-06-01T10:23:31.667Z,4.70
2023-06-01T10:26:02.408Z,5.13
2023-06-01T10:28:31.353Z,5.63
2023-06-01T10:31:33.674Z,5.10
2023-06-01T10:34:00.592Z,5.00
2023-06-01T10:36:52.913Z,5.53
2023-06-01T10:39:33.431Z,5.47
2023-06-01T10:42:20.533Z,4.60
2023-06-01T10:44:48.615Z,4.75
2023-06-01T10:47:21.481Z,4.70
2023-06-01T10:49:48.313Z,4.85
2023-06-01T10:52:28.137Z,4.55
2023-06-01T10:54:56.381Z,5.47
2023-06-01T10:57:27.218Z,5.15
2023-06-01T11:00:27.720Z,4.47
2023-06-01T11:03:01.243Z,4.85
2023-06-01T11:05:48.598Z,5.07
2023-06-01T11:08:21.432Z,4.80
2023-06-01T11:10:54.455Z,4.88
2023-06-01T11:13:43.057Z,5.32
2023-06-01T11:16:11.766Z,4.97
2023-06-01T11:18:42.399Z,4.78
2023-06-01T11:21:22.523Z,4.75
2023-06-01T11:23:50.053Z,4.63
2023-06-01T11:26:19.853Z,4.82
2023-06-01T11:28:48.119Z,4.90
2023-06-01T11:31:19.685Z,4.72
2023-06-01T11:33:54.887Z,4.72
2023-06-01T11:36:24.936Z,4.80
2023-06-01T11:38:55.310Z,4.18
2023-06-01T11:41:24.623Z,4.97
2023-06-01T11:43:56.988Z,4.75
2023-06-01T11:46:24.868Z,4.40
2023-06-01T11:49:06.637Z,4.22
2023-06-01T11:51:43.295Z,4.38
2023-06-01T11:54:10.158Z,4.60
2023-06-01T11:56:40.534Z,4.85
2023-06-01T11:59:10.972Z,4.43
2023-06-01T12:01:44.233Z,4.78
2023-06-01T12:04:19.471Z,4.47
2023-06-01T12:06:46.833Z,4.72
2023-06-01T12:09:16.491Z,4.80
2023-06-01T12:11:45.617Z,4.47
2023-06-01T12:14:14.619Z,4.43
2023-06-01T12:17:02.374Z,4.63
2023-06-01T12:19:29.810Z,4.32
2023-06-01T12:21:58.228Z,4.38
2023-06-01T12:24:34.265Z,4.90
2023-06-01T12:27:03.001Z,5.05
2023-06-01T12:29:39.208Z,4.68
2023-06-01T12:32:06.772Z,4.28
2023-06-01T12:34:33.625Z,4.35
2023-06-01T12:37:00.763Z,4.18
2023-06-01T12:39:37.872Z,4.93
2023-06-01T12:42:08.173Z,5.03
2023-06-01T12:44:35.108Z,4.70
2023-06-01T12:47:02.390Z,4.82
2023-06-01T12:49:29.802Z,4.60
2023-06-01T12:51:57.295Z,4.60
2023-06-01T12:54:24.468Z,4.75
2023-06-01T12:56:52.452Z,4.43
2023-06-01T12:59:19.338Z,5.25
2023-06-01T13:01:46.284Z,5.25
2023-06-01T13:04:13.348Z,4.90
2023-06-01T13:06:40.432Z,4.85
2023-06-01T13:09:08.216Z,4.88
2023-06-01T13:11:35.577Z,4.43
2023-06-01T13:14:03.042Z,4.50
2023-06-01T13:16:29.994Z,4.40
2023-06-01T13:18:56.975Z,5.00
2023-06-01T13:21:23.797Z,4.90
2023-06-01T13:23:50.563Z,3.95
2023-06-01T13:26:17.410Z,5.00
2023-06-01T13:28:44.392Z,4.40
2023-06-01T13:31:11.464Z,4.97
2023-06-01T13:33:38.239Z,4.78
2023-06-01T13:36:06.638Z,4.40
2023-06-01T13:38:33.554Z,4.43
2023-06-01T13:41:00.750Z,5.15
2023-06-01T13:43:27.675Z,5.25
2023-06-01T13:45:54.946Z,4.40
2023-06-01T13:48:21.937Z,4.32
2023-06-01T13:50:48.909Z,5.05
2023-06-01T13:53:15.828Z,4.32
2023-06-01T13:55:42.775Z,4.80
2023-06-01T13:58:09.644Z,4.45
2023-06-01T14:00:37.179Z,4.13
2023-06-01T14:03:04.449Z,4.70
2023-06-01T14:05:44.556Z,4.65
2023-06-01T14:08:17.490Z,5.55
2023-06-01T14:10:45.204Z,5.25
2023-06-01T14:13:12.013Z,4.15
2023-06-01T14:15:38.914Z,4.70
2023-06-01T14:18:06.753Z,5.30
2023-06-01T14:20:35.819Z,4.90
2023-06-01T14:23:04.148Z,4.97
2023-06-01T14:25:31.065Z,5.05
2023-06-01T14:27:57.867Z,5.25
2023-06-01T14:30:25.107Z,5.10
2023-06-01T14:32:52.071Z,5.00
2023-06-01T14:35:19.875Z,4.30
2023-06-01T14:37:49.618Z,4.88
2023-06-01T14:40:17.324Z,5.18
2023-06-01T14:42:44.099Z,4.55
2023-06-01T14:45:12.492Z,4.25
2023-06-01T14:47:42.556Z,4.68
2023-06-01T14:50:10.457Z,4.80
2023-06-01T14:52:37.248Z,4.47
2023-06-01T14:55:04.355Z,3.80
2023-06-01T14:57:31.154Z,4.50
2023-06-01T15:00:04.198Z,4.15
2023-06-01T15:02:33.707Z,4.72
2023-06-01T15:05:00.868Z,4.45
2023-06-01T15:07:27.781Z,3.85
2023-06-01T15:09:54.777Z,4.03
2023-06-01T15:12:21.935Z,4.43
2023-06-01T15:14:49.509Z,4.53
2023-06-01T15:17:16.610Z,4.20
2023-06-01T15:19:43.792Z,4.15
2023-06-01T15:24:38.705Z,4.50
2023-06-01T15:27:07.093Z,4.30
2023-06-01T15:29:34.622Z,4.00
2023-06-01T15:32:01.416Z,4.07
2023-06-01T15:34:28.447Z,4.45
2023-06-01T15:36:56.482Z,4.38
2023-06-01T15:39:23.501Z,3.85
2023-06-01T15:41:57.419Z,4.50
2023-06-01T15:44:24.812Z,3.63
2023-06-01T15:46:52.067Z,4.47
2023-06-01T15:49:19.406Z,4.57
2023-06-01T15:51:46.267Z,4.00
2023-06-01T15:54:13.052Z,4.13
2023-06-01T15:56:39.904Z,4.10
2023-06-01T15:59:06.819Z,3.80
2023-06-01T16:01:33.980Z,4.13
2023-06-01T16:04:01.063Z,4.45
2023-06-01T16:06:27.902Z,4.05
2023-06-01T16:08:54.854Z,4.10
2023-06-01T16:11:21.716Z,4.05
2023-06-01T16:13:48.640Z,4.60
2023-06-01T16:16:16.905Z,3.92
2023-06-01T16:18:43.930Z,4.00
2023-06-01T16:21:10.824Z,4.60
2023-06-01T16:23:37.820Z,4.18
2023-06-01T16:26:05.425Z,4.18
2023-06-01T16:28:32.219Z,3.95
2023-06-01T16:30:59.100Z,4.53
2023-06-01T16:33:28.340Z,4.40
2023-06-01T16:35:56.336Z,4.18
2023-06-01T16:38:23.260Z,4.65
2023-06-01T16:40:50.717Z,3.75
2023-06-01T16:43:19.670Z,4.22
2023-06-01T16:45:47.815Z,4.60
2023-06-01T16:48:14.732Z,4.20
2023-06-01T16:50:44.668Z,4.55
2023-06-01T16:53:12.214Z,3.92
2023-06-01T16:55:38.940Z,4.22
2023-06-01T16:58:06.358Z,4.03
2023-06-01T17:00:33.682Z,4.63
2023-06-01T17:03:00.665Z,4.00
2023-06-01T17:05:27.967Z,3.80
2023-06-01T17:07:55.208Z,3.97
2023-06-01T17:10:22.561Z,4.05
2023-06-01T17:12:50.873Z,4.05
2023-06-01T17:15:17.794Z,3.80
2023-06-01T17:17:44.849Z,4.38
2023-06-01T17:20:12.178Z,4.22
2023-06-01T17:22:39.148Z,4.05
2023-06-01T17:25:08.468Z,4.20
2023-06-01T17:27:35.511Z,3.83
2023-06-01T17:30:02.359Z,3.90
2023-06-01T17:32:29.265Z,4.32
2023-06-01T17:34:56.112Z,3.97
2023-06-01T17:37:23.096Z,3.95
2023-06-01T17:39:49.888Z,4.30
2023-06-01T17:42:16.710Z,4.65
2023-06-01T17:44:43.586Z,4.20
2023-06-01T17:47:10.470Z,4.65
2023-06-01T17:49:37.191Z,4.15
2023-06-01T17:52:04.194Z,4.32
2023-06-01T17:54:31.091Z,4.65
2023-06-01T17:56:57.944Z,4.07
2023-06-01T17:59:24.716Z,4.55
2023-06-01T18:01:51.501Z,4.50
2023-06-01T18:04:18.307Z,3.80
2023-06-01T18:06:45.206Z,4.32
2023-06-01T18:09:12.052Z,3.92
2023-06-01T18:11:38.902Z,4.47
2023-06-01T18:14:05.911Z,4.35
2023-06-01T18:16:32.747Z,4.10
2023-06-01T18:18:59.494Z,4.45
2023-06-01T18:21:26.564Z,4.05
2023-06-01T18:23:53.373Z,4.72
2023-06-01T18:26:20.527Z,4.65
2023-06-01T18:28:47.512Z,4.38
2023-06-01T18:31:15.013Z,4.40
2023-06-01T18:33:42.107Z,5.18
2023-06-01T18:36:09.694Z,4.45
2023-06-01T18:38:36.955Z,4.60
2023-06-01T18:41:03.759Z,3.85
2023-06-01T18:43:30.669Z,5.03
2023-06-01T18:45:57.582Z,4.10
2023-06-01T18:48:24.506Z,4.15
2023-06-01T18:50:51.762Z,4.60
2023-06-01T18:53:19.455Z,5.57
2023-06-01T18:55:49.489Z,4.13
2023-06-01T18:58:17.386Z,4.75
2023-06-01T19:00:45.942Z,4.50
2023-06-01T19:03:14.423Z,4.22
2023-06-01T19:05:41.797Z,4.35
2023-06-01T19:08:09.652Z,4.50
2023-06-01T19:10:59.993Z,4.38
2023-06-01T19:13:44.497Z,4.60
2023-06-01T19:16:24.898Z,4.00
2023-06-01T19:18:54.394Z,4.90
2023-06-01T19:21:26.228Z,4.97
2023-06-01T19:24:01.621Z,4.80
2023-06-01T19:26:30.911Z,4.63
2023-06-01T19:29:08.487Z,5.50
2023-06-01T19:31:44.309Z,4.55
2023-06-01T19:34:13.190Z,4.50
2023-06-01T19:36:43.052Z,4.60
2023-06-01T19:39:16.499Z,4.78
2023-06-01T19:41:44.409Z,4.70
2023-06-01T19:44:17.309Z,5.35
2023-06-01T19:46:44.202Z,5.05
2023-06-01T19:49:16.457Z,4.85
2023-06-01T19:51:44.513Z,4.85
2023-06-01T19:54:19.312Z,4.75
2023-06-01T19:56:48.368Z,5.28
2023-06-01T19:59:21.627Z,5.22
2023-06-01T20:01:49.272Z,6.00
2023-06-01T20:04:17.019Z,6.07
2023-06-01T20:06:46.597Z,5.13
2023-06-01T20:09:15.764Z,4.70
2023-06-01T20:11:48.540Z,5.07
2023-06-01T20:14:28.434Z,5.38
2023-06-01T20:16:56.700Z,5.03
2023-06-01T20:19:24.249Z,4.95
2023-06-01T20:21:53.497Z,6.00
2023-06-01T20:24:26.168Z,5.53
2023-06-01T20:26:59.889Z,5.28
2023-06-01T20:29:32.358Z,5.03
2023-06-01T20:32:01.767Z,5.28
2023-06-01T20:34:30.813Z,5.50
2023-06-01T20:36:58.319Z,5.40
2023-06-01T20:39:25.603Z,5.80
2023-06-01T20:41:57.450Z,5.70
2023-06-01T20:44:24.574Z,5.82
2023-06-01T20:46:52.723Z,5.45
2023-06-01T20:49:25.383Z,4.93
2023-06-01T20:51:53.019Z,6.03
2023-06-01T20:54:21.977Z,5.53
2023-06-01T20:56:54.437Z,7.22
2023-06-01T20:59:21.525Z,6.20
2023-06-01T21:01:59.702Z,6.10
2023-06-01T21:04:31.819Z,5.85
2023-06-01T21:06:58.989Z,6.18
2023-06-01T21:09:26.842Z,6.30
2023-06-01T21:11:55.566Z,5.72
2023-06-01T21:14:22.827Z,5.93
2023-06-01T21:16:49.930Z,6.35
2023-06-01T21:19:17.108Z,5.43
2023-06-01T21:21:44.269Z,7.10
2023-06-01T21:24:15.280Z,6.55
2023-06-01T21:26:42.303Z,6.32
2023-06-01T21:29:12.381Z,6.63
2023-06-01T21:31:39.667Z,5.93
2023-06-01T21:34:06.784Z,6.20
2023-06-01T21:36:33.690Z,8.10
2023-06-01T21:39:00.751Z,6.93
2023-06-01T21:41:27.927Z,7.05
2023-06-01T21:43:54.949Z,6.15
2023-06-01T21:46:21.817Z,6.70
2023-06-01T21:48:48.838Z,6.63
2023-06-01T21:51:15.760Z,6.60
2023-06-01T21:53:42.742Z,7.28
2023-06-01T21:56:09.719Z,6.25
2023-06-01T21:58:38.809Z,6.20
2023-06-01T22:01:07.135Z,5.90
2023-06-01T22:03:35.061Z,6.53
2023-06-01T22:06:02.787Z,7.63
2023-06-01T22:08:29.904Z,7.80
2023-06-01T22:10:56.838Z,6.97
2023-06-01T22:13:23.684Z,7.68
2023-06-01T22:15:50.573Z,7.68
2023-06-01T22:18:17.396Z,7.70
2023-06-01T22:20:44.326Z,7.00
2023-06-01T22:23:11.118Z,7.53
2023-06-01T22:25:38.821Z,6.43
2023-06-01T22:28:06.771Z,7.07
2023-06-01T22:30:33.940Z,6.68
2023-06-01T22:33:01.761Z,7.93
2023-06-01T22:35:28.876Z,7.35
2023-06-01T22:37:55.874Z,7.05
2023-06-01T22:40:22.747Z,7.65
2023-06-01T22:42:50.976Z,7.28
2023-06-01T22:45:19.075Z,7.70
2023-06-01T22:47:46.003Z,7.75
2023-06-01T22:50:13.085Z,7.95
2023-06-01T22:52:40.016Z,7.55
2023-06-01T22:55:07.297Z,8.05
2023-06-01T22:57:34.824Z,7.40
2023-06-01T23:00:02.495Z,8.13
2023-06-01T23:02:29.465Z,7.50
2023-06-01T23:04:56.387Z,8.13
2023-06-01T23:07:23.192Z,7.05
2023-06-01T23:09:50.265Z,7.53
2023-06-01T23:12:17.832Z,7.20
2023-06-01T23:14:44.653Z,7.47
2023-06-01T23:17:15.921Z,8.20
2023-06-01T23:19:43.986Z,8.15
2023-06-01T23:22:14.368Z,8.52
2023-06-01T23:24:42.174Z,8.20
2023-06-01T23:27:09.192Z,7.55
2023-06-01T23:29:36.678Z,7.55
2023-06-01T23:32:04.627Z,7.63
2023-06-01T23:34:33.987Z,8.13
2023-06-01T23:37:02.908Z,8.25
2023-06-01T23:39:31.278Z,7.57
2023-06-01T23:41:58.306Z,8.60
2023-06-01T23:44:25.197Z,8.23
2023-06-01T23:46:52.196Z,8.77
2023-06-01T23:49:19.414Z,7.63
2023-06-01T23:51:46.418Z,7.88
2023-06-01T23:54:13.543Z,7.35
2023-06-01T23:56:40.759Z,7.63
2023-06-01T23:59:07.652Z,7.45
